Airfield :
LOGIN :

Register | Disclaimer

   EN    FR    IT 

 










Legend :    VFR   Marginal VFR   IFR   Intensive IFR   Very Intensive IFR
Visi :
Ceiling :
>= 8 km
>= 3000ft
5 to 8 km
1000 to 3000 ft
1500m to 5 km
500 to 1000 ft
800 to 1500m
200 to 500 ft
< 800m
< 200 ft
Symbols :   Thunderstorms  Fog  Heavy snow  Heavy precipitations  Wind > 20 kt
SIGMETs :     Misc.  Thunderstorms  Icing  Turbulence  Mountain Waves  Volcanic Ashes






- Airport Elevation : 2096 ft
- IATA code : AUR


LFLW - Aurillac

CURRENT METAR :
  • 131000Z AUTO 27004KT 240V310 9999 SCT025 BKN033 OVC130 20/16 Q1018 BECMG SCT040TCU

EXPIRED METARs :
  • 130930Z AUTO 24004KT 200V320 9999 BKN023 BKN028 OVC110 21/15 Q1018 BECMG SCT040TCU
  • 130900Z AUTO VRB03KT 9999 BKN019 BKN120 OVC150 20/15 Q1018 BECMG SCT040TCU
  • 130830Z AUTO VRB03KT CAVOK 20/16 Q1018 NOSIG
  • 130800Z AUTO 18003KT 120V270 CAVOK 19/15 Q1018 NOSIG
  • 130730Z AUTO VRB02KT 9999 FEW012/// BKN120/// 19/16 Q1018 NOSIG

TAF TAF LFLW
Valid from the 13 at 09:00 until the 13 at 18:00 UTC


130800Z 1309/1318 24008KT CAVOK
BECMG 1310/1311 SCT040TCU
PROB40
TEMPO 1313/1317 SHRA FEW050CB



MET'MAP, your aeronautical weather chart ! - Copyright ORBIFLY December 2007 - Disclaimer

ORBIFLY MET'MAP TEAM :

Programming & Development : Alexandra Zaïnal
Concept & original design : Baudouin d'Aumeries
Assistance for programming : Marc-Olivier Méhu
Technical & hardware support : Manuel Goepfert

Contact : metmap@orbifly.com




SOURCES & CREDITS :

   NOAA